sensor_id;sensor_type;location;lat;lon;timestamp;P1;durP1;ratioP1;P2;durP2;ratioP2
66721;SDS011;53633;49.932;10.884;2023-03-14T00:00:56;1.98;;;0.40;;
66721;SDS011;53633;49.932;10.884;2023-03-14T00:03:23;2.15;;;0.50;;
66721;SDS011;53633;49.932;10.884;2023-03-14T00:05:50;4.23;;;0.50;;
66721;SDS011;53633;49.932;10.884;2023-03-14T00:08:18;3.45;;;0.82;;
66721;SDS011;53633;49.932;10.884;2023-03-14T00:10:45;2.40;;;0.50;;
66721;SDS011;53633;49.932;10.884;2023-03-14T00:13:11;1.80;;;0.30;;
66721;SDS011;53633;49.932;10.884;2023-03-14T00:15:38;2.40;;;0.30;;
66721;SDS011;53633;49.932;10.884;2023-03-14T00:18:05;2.73;;;0.30;;
66721;SDS011;53633;49.932;10.884;2023-03-14T00:20:31;2.33;;;0.40;;
66721;SDS011;53633;49.932;10.884;2023-03-14T00:22:58;2.08;;;0.30;;
66721;SDS011;53633;49.932;10.884;2023-03-14T00:25:26;1.73;;;0.30;;
66721;SDS011;53633;49.932;10.884;2023-03-14T00:31:15;1.37;;;0.20;;
66721;SDS011;53633;49.932;10.884;2023-03-14T00:33:42;1.50;;;0.30;;
66721;SDS011;53633;49.932;10.884;2023-03-14T00:36:10;2.33;;;0.40;;
66721;SDS011;53633;49.932;10.884;2023-03-14T00:38:38;3.25;;;0.40;;
66721;SDS011;53633;49.932;10.884;2023-03-14T00:41:09;2.10;;;0.30;;
66721;SDS011;53633;49.932;10.884;2023-03-14T00:43:37;1.70;;;0.30;;
66721;SDS011;53633;49.932;10.884;2023-03-14T00:46:04;1.88;;;0.60;;
66721;SDS011;53633;49.932;10.884;2023-03-14T00:48:31;2.25;;;0.50;;
66721;SDS011;53633;49.932;10.884;2023-03-14T00:50:57;3.47;;;0.45;;
66721;SDS011;53633;49.932;10.884;2023-03-14T00:53:24;2.75;;;0.30;;
66721;SDS011;53633;49.932;10.884;2023-03-14T00:55:51;2.03;;;0.30;;
66721;SDS011;53633;49.932;10.884;2023-03-14T00:58:19;1.50;;;0.30;;
66721;SDS011;53633;49.932;10.884;2023-03-14T01:00:46;3.30;;;0.30;;
66721;SDS011;53633;49.932;10.884;2023-03-14T01:03:13;2.25;;;0.50;;
66721;SDS011;53633;49.932;10.884;2023-03-14T01:05:40;1.52;;;0.30;;
66721;SDS011;53633;49.932;10.884;2023-03-14T01:08:07;1.53;;;0.30;;
66721;SDS011;53633;49.932;10.884;2023-03-14T01:10:37;1.95;;;0.40;;
66721;SDS011;53633;49.932;10.884;2023-03-14T01:13:04;2.72;;;0.40;;
66721;SDS011;53633;49.932;10.884;2023-03-14T01:15:33;2.70;;;0.30;;
66721;SDS011;53633;49.932;10.884;2023-03-14T01:18:00;1.35;;;0.30;;
66721;SDS011;53633;49.932;10.884;2023-03-14T01:20:27;1.53;;;0.30;;
66721;SDS011;53633;49.932;10.884;2023-03-14T01:22:53;2.65;;;0.30;;
66721;SDS011;53633;49.932;10.884;2023-03-14T01:25:20;2.53;;;0.30;;
66721;SDS011;53633;49.932;10.884;2023-03-14T01:27:47;2.90;;;0.70;;
66721;SDS011;53633;49.932;10.884;2023-03-14T01:30:13;1.73;;;0.50;;
66721;SDS011;53633;49.932;10.884;2023-03-14T01:32:42;2.47;;;0.40;;
66721;SDS011;53633;49.932;10.884;2023-03-14T01:35:08;1.73;;;0.40;;
66721;SDS011;53633;49.932;10.884;2023-03-14T01:37:35;1.67;;;0.30;;
66721;SDS011;53633;49.932;10.884;2023-03-14T01:40:02;2.92;;;0.40;;
66721;SDS011;53633;49.932;10.884;2023-03-14T01:42:29;2.53;;;0.40;;
66721;SDS011;53633;49.932;10.884;2023-03-14T01:44:56;2.70;;;0.40;;
66721;SDS011;53633;49.932;10.884;2023-03-14T01:47:24;2.40;;;0.40;;
66721;SDS011;53633;49.932;10.884;2023-03-14T01:49:53;1.75;;;0.32;;
66721;SDS011;53633;49.932;10.884;2023-03-14T01:52:24;1.80;;;0.30;;
66721;SDS011;53633;49.932;10.884;2023-03-14T01:54:55;1.92;;;0.40;;
66721;SDS011;53633;49.932;10.884;2023-03-14T01:57:27;2.10;;;0.30;;
66721;SDS011;53633;49.932;10.884;2023-03-14T01:59:59;1.23;;;0.30;;
66721;SDS011;53633;49.932;10.884;2023-03-14T02:02:29;2.25;;;0.30;;
66721;SDS011;53633;49.932;10.884;2023-03-14T02:04:58;0.88;;;0.30;;
66721;SDS011;53633;49.932;10.884;2023-03-14T02:07:26;2.53;;;0.25;;
66721;SDS011;53633;49.932;10.884;2023-03-14T02:09:59;1.87;;;0.40;;
66721;SDS011;53633;49.932;10.884;2023-03-14T02:12:29;2.38;;;0.43;;
66721;SDS011;53633;49.932;10.884;2023-03-14T02:14:56;2.08;;;0.30;;
66721;SDS011;53633;49.932;10.884;2023-03-14T02:17:23;1.10;;;0.30;;
66721;SDS011;53633;49.932;10.884;2023-03-14T02:19:55;2.00;;;0.30;;
66721;SDS011;53633;49.932;10.884;2023-03-14T02:22:31;1.63;;;0.30;;
66721;SDS011;53633;49.932;10.884;2023-03-14T02:25:02;1.80;;;0.40;;
66721;SDS011;53633;49.932;10.884;2023-03-14T02:27:35;1.83;;;0.40;;
66721;SDS011;53633;49.932;10.884;2023-03-14T02:30:03;2.95;;;0.43;;
66721;SDS011;53633;49.932;10.884;2023-03-14T02:32:32;1.52;;;0.40;;
66721;SDS011;53633;49.932;10.884;2023-03-14T02:35:02;3.13;;;0.30;;
66721;SDS011;53633;49.932;10.884;2023-03-14T02:37:33;2.05;;;0.30;;
66721;SDS011;53633;49.932;10.884;2023-03-14T02:40:03;2.95;;;0.30;;
66721;SDS011;53633;49.932;10.884;2023-03-14T02:42:30;1.40;;;0.30;;
66721;SDS011;53633;49.932;10.884;2023-03-14T02:44:59;3.15;;;0.32;;
66721;SDS011;53633;49.932;10.884;2023-03-14T02:47:49;2.53;;;0.30;;
66721;SDS011;53633;49.932;10.884;2023-03-14T02:50:21;1.83;;;0.40;;
66721;SDS011;53633;49.932;10.884;2023-03-14T02:52:51;2.55;;;0.30;;
66721;SDS011;53633;49.932;10.884;2023-03-14T02:55:19;1.33;;;0.30;;
66721;SDS011;53633;49.932;10.884;2023-03-14T02:57:46;2.42;;;0.43;;
66721;SDS011;53633;49.932;10.884;2023-03-14T03:00:15;1.90;;;0.40;;
66721;SDS011;53633;49.932;10.884;2023-03-14T03:02:42;1.67;;;0.22;;
66721;SDS011;53633;49.932;10.884;2023-03-14T03:05:09;1.42;;;0.30;;
66721;SDS011;53633;49.932;10.884;2023-03-14T03:07:35;2.50;;;0.30;;
66721;SDS011;53633;49.932;10.884;2023-03-14T03:10:03;2.25;;;0.40;;
66721;SDS011;53633;49.932;10.884;2023-03-14T03:12:30;2.30;;;0.30;;
66721;SDS011;53633;49.932;10.884;2023-03-14T03:14:57;1.70;;;0.40;;
66721;SDS011;53633;49.932;10.884;2023-03-14T03:17:25;2.85;;;0.30;;
66721;SDS011;53633;49.932;10.884;2023-03-14T03:19:52;0.90;;;0.20;;
66721;SDS011;53633;49.932;10.884;2023-03-14T03:22:18;1.42;;;0.20;;
66721;SDS011;53633;49.932;10.884;2023-03-14T03:24:45;1.87;;;0.40;;
66721;SDS011;53633;49.932;10.884;2023-03-14T03:27:11;3.15;;;0.30;;
66721;SDS011;53633;49.932;10.884;2023-03-14T03:29:38;1.98;;;0.32;;
66721;SDS011;53633;49.932;10.884;2023-03-14T03:32:05;3.33;;;0.30;;
66721;SDS011;53633;49.932;10.884;2023-03-14T03:34:33;1.55;;;0.20;;
66721;SDS011;53633;49.932;10.884;2023-03-14T03:36:59;2.63;;;0.40;;
66721;SDS011;53633;49.932;10.884;2023-03-14T03:39:26;2.78;;;0.50;;
66721;SDS011;53633;49.932;10.884;2023-03-14T03:41:53;2.47;;;0.38;;
66721;SDS011;53633;49.932;10.884;2023-03-14T03:44:19;1.58;;;0.30;;
66721;SDS011;53633;49.932;10.884;2023-03-14T03:46:46;2.60;;;0.30;;
66721;SDS011;53633;49.932;10.884;2023-03-14T03:49:13;3.53;;;0.40;;
66721;SDS011;53633;49.932;10.884;2023-03-14T03:51:41;2.03;;;0.30;;
66721;SDS011;53633;49.932;10.884;2023-03-14T03:54:07;2.97;;;0.50;;
66721;SDS011;53633;49.932;10.884;2023-03-14T03:56:34;2.33;;;0.40;;
66721;SDS011;53633;49.932;10.884;2023-03-14T03:59:01;2.20;;;0.30;;
66721;SDS011;53633;49.932;10.884;2023-03-14T04:01:27;2.67;;;0.50;;
66721;SDS011;53633;49.932;10.884;2023-03-14T04:03:54;2.92;;;0.40;;
66721;SDS011;53633;49.932;10.884;2023-03-14T04:06:21;2.13;;;0.40;;
66721;SDS011;53633;49.932;10.884;2023-03-14T04:08:50;3.15;;;0.40;;
66721;SDS011;53633;49.932;10.884;2023-03-14T04:11:16;1.52;;;0.30;;
66721;SDS011;53633;49.932;10.884;2023-03-14T04:13:43;3.07;;;0.50;;
66721;SDS011;53633;49.932;10.884;2023-03-14T04:16:11;2.95;;;0.70;;
66721;SDS011;53633;49.932;10.884;2023-03-14T04:18:41;1.88;;;0.40;;
66721;SDS011;53633;49.932;10.884;2023-03-14T04:21:07;1.83;;;0.32;;
66721;SDS011;53633;49.932;10.884;2023-03-14T04:23:34;1.48;;;0.35;;
66721;SDS011;53633;49.932;10.884;2023-03-14T04:26:02;2.37;;;0.30;;
66721;SDS011;53633;49.932;10.884;2023-03-14T04:28:29;3.80;;;0.40;;
66721;SDS011;53633;49.932;10.884;2023-03-14T04:30:55;1.65;;;0.30;;
66721;SDS011;53633;49.932;10.884;2023-03-14T04:33:22;2.03;;;0.30;;
66721;SDS011;53633;49.932;10.884;2023-03-14T04:35:52;2.78;;;0.30;;
66721;SDS011;53633;49.932;10.884;2023-03-14T04:38:20;1.87;;;0.60;;
66721;SDS011;53633;49.932;10.884;2023-03-14T04:40:46;3.40;;;0.30;;
66721;SDS011;53633;49.932;10.884;2023-03-14T04:43:14;1.65;;;0.40;;
66721;SDS011;53633;49.932;10.884;2023-03-14T04:45:41;2.42;;;0.40;;
66721;SDS011;53633;49.932;10.884;2023-03-14T04:48:08;3.70;;;0.40;;
66721;SDS011;53633;49.932;10.884;2023-03-14T04:50:35;2.03;;;0.30;;
66721;SDS011;53633;49.932;10.884;2023-03-14T04:53:01;2.05;;;0.40;;
66721;SDS011;53633;49.932;10.884;2023-03-14T04:55:28;2.38;;;0.30;;
66721;SDS011;53633;49.932;10.884;2023-03-14T04:57:55;2.92;;;0.30;;
66721;SDS011;53633;49.932;10.884;2023-03-14T05:00:23;2.63;;;0.55;;
66721;SDS011;53633;49.932;10.884;2023-03-14T05:02:50;3.10;;;0.70;;
66721;SDS011;53633;49.932;10.884;2023-03-14T05:05:17;3.15;;;0.40;;
66721;SDS011;53633;49.932;10.884;2023-03-14T05:07:43;4.57;;;0.47;;
66721;SDS011;53633;49.932;10.884;2023-03-14T05:10:12;4.05;;;0.55;;
66721;SDS011;53633;49.932;10.884;2023-03-14T05:12:39;2.08;;;0.38;;
66721;SDS011;53633;49.932;10.884;2023-03-14T05:15:07;4.10;;;0.50;;
66721;SDS011;53633;49.932;10.884;2023-03-14T05:17:36;7.03;;;0.63;;
66721;SDS011;53633;49.932;10.884;2023-03-14T05:20:02;8.88;;;0.90;;
66721;SDS011;53633;49.932;10.884;2023-03-14T05:22:30;3.42;;;0.50;;
66721;SDS011;53633;49.932;10.884;2023-03-14T05:24:56;2.58;;;0.52;;
66721;SDS011;53633;49.932;10.884;2023-03-14T05:27:23;2.63;;;0.40;;
66721;SDS011;53633;49.932;10.884;2023-03-14T05:29:50;4.10;;;0.50;;
66721;SDS011;53633;49.932;10.884;2023-03-14T05:32:16;3.53;;;0.50;;
66721;SDS011;53633;49.932;10.884;2023-03-14T05:34:44;1.95;;;0.30;;
66721;SDS011;53633;49.932;10.884;2023-03-14T05:37:11;2.83;;;0.40;;
66721;SDS011;53633;49.932;10.884;2023-03-14T05:39:40;2.23;;;0.33;;
66721;SDS011;53633;49.932;10.884;2023-03-14T05:42:07;2.67;;;0.40;;
66721;SDS011;53633;49.932;10.884;2023-03-14T05:44:34;1.88;;;0.30;;
66721;SDS011;53633;49.932;10.884;2023-03-14T05:47:00;3.22;;;0.80;;
66721;SDS011;53633;49.932;10.884;2023-03-14T05:49:27;4.90;;;0.90;;
66721;SDS011;53633;49.932;10.884;2023-03-14T05:51:55;2.93;;;0.60;;
66721;SDS011;53633;49.932;10.884;2023-03-14T05:54:22;3.17;;;0.50;;
66721;SDS011;53633;49.932;10.884;2023-03-14T05:56:48;4.03;;;0.85;;
66721;SDS011;53633;49.932;10.884;2023-03-14T05:59:17;2.25;;;0.40;;
66721;SDS011;53633;49.932;10.884;2023-03-14T06:01:44;2.05;;;0.40;;
66721;SDS011;53633;49.932;10.884;2023-03-14T06:04:11;2.63;;;0.50;;
66721;SDS011;53633;49.932;10.884;2023-03-14T06:06:37;3.50;;;0.40;;
66721;SDS011;53633;49.932;10.884;2023-03-14T06:09:05;6.63;;;0.80;;
66721;SDS011;53633;49.932;10.884;2023-03-14T06:11:32;3.88;;;0.82;;
66721;SDS011;53633;49.932;10.884;2023-03-14T06:13:59;2.92;;;0.60;;
66721;SDS011;53633;49.932;10.884;2023-03-14T06:16:25;3.03;;;0.63;;
66721;SDS011;53633;49.932;10.884;2023-03-14T06:18:52;3.90;;;0.60;;
66721;SDS011;53633;49.932;10.884;2023-03-14T06:21:19;3.55;;;0.50;;
66721;SDS011;53633;49.932;10.884;2023-03-14T06:23:45;4.35;;;0.77;;
66721;SDS011;53633;49.932;10.884;2023-03-14T06:26:13;8.50;;;1.05;;
66721;SDS011;53633;49.932;10.884;2023-03-14T06:28:40;4.07;;;1.00;;
66721;SDS011;53633;49.932;10.884;2023-03-14T06:31:07;4.25;;;0.93;;
66721;SDS011;53633;49.932;10.884;2023-03-14T06:33:37;4.45;;;1.08;;
66721;SDS011;53633;49.932;10.884;2023-03-14T06:36:03;4.75;;;0.90;;
66721;SDS011;53633;49.932;10.884;2023-03-14T06:38:31;4.82;;;0.75;;
66721;SDS011;53633;49.932;10.884;2023-03-14T06:41:02;3.83;;;0.60;;
66721;SDS011;53633;49.932;10.884;2023-03-14T06:43:31;5.65;;;0.73;;
66721;SDS011;53633;49.932;10.884;2023-03-14T06:45:57;3.88;;;0.70;;
66721;SDS011;53633;49.932;10.884;2023-03-14T06:48:24;3.95;;;0.70;;
66721;SDS011;53633;49.932;10.884;2023-03-14T06:50:51;5.13;;;0.90;;
66721;SDS011;53633;49.932;10.884;2023-03-14T06:53:18;5.87;;;1.10;;
66721;SDS011;53633;49.932;10.884;2023-03-14T06:55:45;5.97;;;1.05;;
66721;SDS011;53633;49.932;10.884;2023-03-14T06:58:12;5.38;;;0.82;;
66721;SDS011;53633;49.932;10.884;2023-03-14T07:00:40;6.28;;;0.95;;
66721;SDS011;53633;49.932;10.884;2023-03-14T07:03:08;3.78;;;0.63;;
66721;SDS011;53633;49.932;10.884;2023-03-14T07:05:38;4.07;;;0.60;;
66721;SDS011;53633;49.932;10.884;2023-03-14T07:08:05;4.00;;;0.40;;
66721;SDS011;53633;49.932;10.884;2023-03-14T07:10:32;3.70;;;0.63;;
66721;SDS011;53633;49.932;10.884;2023-03-14T07:12:59;3.25;;;0.43;;
66721;SDS011;53633;49.932;10.884;2023-03-14T07:15:26;5.00;;;0.50;;
66721;SDS011;53633;49.932;10.884;2023-03-14T07:17:54;2.37;;;0.40;;
66721;SDS011;53633;49.932;10.884;2023-03-14T07:20:21;2.55;;;0.40;;
66721;SDS011;53633;49.932;10.884;2023-03-14T07:22:48;2.40;;;0.50;;
66721;SDS011;53633;49.932;10.884;2023-03-14T07:25:15;2.20;;;0.40;;
66721;SDS011;53633;49.932;10.884;2023-03-14T07:27:42;2.15;;;0.50;;
66721;SDS011;53633;49.932;10.884;2023-03-14T07:30:10;3.00;;;0.60;;
66721;SDS011;53633;49.932;10.884;2023-03-14T07:32:37;3.25;;;0.60;;
66721;SDS011;53633;49.932;10.884;2023-03-14T07:35:06;3.83;;;0.50;;
66721;SDS011;53633;49.932;10.884;2023-03-14T07:37:34;3.00;;;0.50;;
66721;SDS011;53633;49.932;10.884;2023-03-14T07:40:01;3.65;;;0.52;;
66721;SDS011;53633;49.932;10.884;2023-03-14T07:42:27;3.20;;;0.53;;
66721;SDS011;53633;49.932;10.884;2023-03-14T07:44:54;6.90;;;0.82;;
66721;SDS011;53633;49.932;10.884;2023-03-14T07:47:21;3.17;;;0.70;;
66721;SDS011;53633;49.932;10.884;2023-03-14T07:49:47;2.42;;;0.45;;
66721;SDS011;53633;49.932;10.884;2023-03-14T07:52:15;3.75;;;0.70;;
66721;SDS011;53633;49.932;10.884;2023-03-14T07:54:42;4.37;;;0.60;;
66721;SDS011;53633;49.932;10.884;2023-03-14T07:57:09;4.60;;;0.50;;
66721;SDS011;53633;49.932;10.884;2023-03-14T07:59:35;4.38;;;0.85;;
66721;SDS011;53633;49.932;10.884;2023-03-14T08:02:02;3.25;;;0.60;;
66721;SDS011;53633;49.932;10.884;2023-03-14T08:04:29;3.08;;;0.40;;
66721;SDS011;53633;49.932;10.884;2023-03-14T08:06:55;4.30;;;0.80;;
66721;SDS011;53633;49.932;10.884;2023-03-14T08:09:23;2.53;;;0.40;;
66721;SDS011;53633;49.932;10.884;2023-03-14T08:11:50;1.92;;;0.43;;
66721;SDS011;53633;49.932;10.884;2023-03-14T08:14:17;4.57;;;0.80;;
66721;SDS011;53633;49.932;10.884;2023-03-14T08:16:44;3.08;;;0.73;;
66721;SDS011;53633;49.932;10.884;2023-03-14T08:19:10;4.37;;;0.60;;
66721;SDS011;53633;49.932;10.884;2023-03-14T08:21:37;4.20;;;0.73;;
66721;SDS011;53633;49.932;10.884;2023-03-14T08:24:04;4.93;;;0.70;;
66721;SDS011;53633;49.932;10.884;2023-03-14T08:26:32;5.55;;;0.63;;
66721;SDS011;53633;49.932;10.884;2023-03-14T08:28:59;3.13;;;0.50;;
66721;SDS011;53633;49.932;10.884;2023-03-14T08:31:26;3.80;;;0.40;;
66721;SDS011;53633;49.932;10.884;2023-03-14T08:33:53;3.83;;;0.57;;
66721;SDS011;53633;49.932;10.884;2023-03-14T08:36:19;2.85;;;0.52;;
66721;SDS011;53633;49.932;10.884;2023-03-14T08:38:49;4.38;;;0.40;;
66721;SDS011;53633;49.932;10.884;2023-03-14T08:41:16;3.10;;;0.45;;
66721;SDS011;53633;49.932;10.884;2023-03-14T08:43:44;3.37;;;0.50;;
66721;SDS011;53633;49.932;10.884;2023-03-14T08:46:10;3.50;;;0.40;;
66721;SDS011;53633;49.932;10.884;2023-03-14T08:48:37;2.20;;;0.40;;
66721;SDS011;53633;49.932;10.884;2023-03-14T08:51:04;3.72;;;0.43;;
66721;SDS011;53633;49.932;10.884;2023-03-14T08:53:32;1.75;;;0.32;;
66721;SDS011;53633;49.932;10.884;2023-03-14T08:55:59;1.47;;;0.30;;
66721;SDS011;53633;49.932;10.884;2023-03-14T08:58:25;2.08;;;0.30;;
66721;SDS011;53633;49.932;10.884;2023-03-14T09:00:53;2.88;;;0.40;;
66721;SDS011;53633;49.932;10.884;2023-03-14T09:03:20;3.70;;;0.47;;
66721;SDS011;53633;49.932;10.884;2023-03-14T09:05:47;2.15;;;0.30;;
66721;SDS011;53633;49.932;10.884;2023-03-14T09:08:14;3.00;;;0.40;;
66721;SDS011;53633;49.932;10.884;2023-03-14T09:10:40;3.75;;;0.60;;
66721;SDS011;53633;49.932;10.884;2023-03-14T09:13:07;4.05;;;0.40;;
66721;SDS011;53633;49.932;10.884;2023-03-14T09:15:34;3.42;;;0.50;;
66721;SDS011;53633;49.932;10.884;2023-03-14T09:18:02;3.85;;;0.50;;
66721;SDS011;53633;49.932;10.884;2023-03-14T09:20:29;4.07;;;0.50;;
66721;SDS011;53633;49.932;10.884;2023-03-14T09:22:55;2.63;;;0.40;;
66721;SDS011;53633;49.932;10.884;2023-03-14T09:25:22;4.55;;;0.57;;
66721;SDS011;53633;49.932;10.884;2023-03-14T09:27:49;4.40;;;0.40;;
66721;SDS011;53633;49.932;10.884;2023-03-14T09:30:16;4.72;;;0.60;;
66721;SDS011;53633;49.932;10.884;2023-03-14T09:32:43;3.10;;;0.50;;
66721;SDS011;53633;49.932;10.884;2023-03-14T09:35:11;3.35;;;0.40;;
66721;SDS011;53633;49.932;10.884;2023-03-14T09:37:38;4.00;;;0.47;;
66721;SDS011;53633;49.932;10.884;2023-03-14T09:40:05;4.20;;;0.55;;
66721;SDS011;53633;49.932;10.884;2023-03-14T09:42:34;4.00;;;0.40;;
66721;SDS011;53633;49.932;10.884;2023-03-14T09:45:04;3.40;;;0.73;;
66721;SDS011;53633;49.932;10.884;2023-03-14T09:47:33;3.20;;;0.40;;
66721;SDS011;53633;49.932;10.884;2023-03-14T09:50:09;2.13;;;0.30;;
66721;SDS011;53633;49.932;10.884;2023-03-14T09:52:41;3.35;;;0.40;;
66721;SDS011;53633;49.932;10.884;2023-03-14T09:55:11;5.38;;;0.60;;
66721;SDS011;53633;49.932;10.884;2023-03-14T09:57:41;4.80;;;0.87;;
66721;SDS011;53633;49.932;10.884;2023-03-14T10:00:12;3.58;;;0.68;;
66721;SDS011;53633;49.932;10.884;2023-03-14T10:02:43;4.63;;;0.50;;
66721;SDS011;53633;49.932;10.884;2023-03-14T10:05:18;6.00;;;0.60;;
66721;SDS011;53633;49.932;10.884;2023-03-14T10:07:46;2.95;;;0.50;;
66721;SDS011;53633;49.932;10.884;2023-03-14T10:10:13;4.53;;;0.50;;
66721;SDS011;53633;49.932;10.884;2023-03-14T10:12:44;5.38;;;0.63;;
66721;SDS011;53633;49.932;10.884;2023-03-14T10:15:12;5.75;;;0.90;;
66721;SDS011;53633;49.932;10.884;2023-03-14T10:17:40;3.85;;;0.88;;
66721;SDS011;53633;49.932;10.884;2023-03-14T10:20:25;3.97;;;0.50;;
66721;SDS011;53633;49.932;10.884;2023-03-14T10:22:54;7.57;;;1.30;;
66721;SDS011;53633;49.932;10.884;2023-03-14T10:25:25;7.00;;;1.15;;
66721;SDS011;53633;49.932;10.884;2023-03-14T10:27:53;6.53;;;1.83;;
66721;SDS011;53633;49.932;10.884;2023-03-14T10:30:27;5.50;;;1.55;;
66721;SDS011;53633;49.932;10.884;2023-03-14T10:32:56;3.53;;;0.50;;
66721;SDS011;53633;49.932;10.884;2023-03-14T10:35:27;2.03;;;0.37;;
66721;SDS011;53633;49.932;10.884;2023-03-14T10:37:59;1.88;;;0.50;;
66721;SDS011;53633;49.932;10.884;2023-03-14T10:40:28;2.00;;;0.60;;
66721;SDS011;53633;49.932;10.884;2023-03-14T10:42:57;1.73;;;0.30;;
66721;SDS011;53633;49.932;10.884;2023-03-14T10:45:29;3.13;;;0.50;;
66721;SDS011;53633;49.932;10.884;2023-03-14T10:47:59;2.20;;;0.40;;
66721;SDS011;53633;49.932;10.884;2023-03-14T10:50:33;2.08;;;0.40;;
66721;SDS011;53633;49.932;10.884;2023-03-14T10:53:00;1.10;;;0.30;;
66721;SDS011;53633;49.932;10.884;2023-03-14T10:55:32;2.88;;;0.50;;
66721;SDS011;53633;49.932;10.884;2023-03-14T10:58:16;1.85;;;0.30;;
66721;SDS011;53633;49.932;10.884;2023-03-14T11:00:44;4.97;;;0.67;;
66721;SDS011;53633;49.932;10.884;2023-03-14T11:03:14;2.92;;;0.47;;
66721;SDS011;53633;49.932;10.884;2023-03-14T11:05:44;4.00;;;0.75;;
66721;SDS011;53633;49.932;10.884;2023-03-14T11:08:19;4.00;;;0.70;;
66721;SDS011;53633;49.932;10.884;2023-03-14T11:10:51;3.10;;;0.40;;
66721;SDS011;53633;49.932;10.884;2023-03-14T11:13:21;4.57;;;0.60;;
66721;SDS011;53633;49.932;10.884;2023-03-14T11:15:53;4.97;;;0.60;;
66721;SDS011;53633;49.932;10.884;2023-03-14T11:21:27;2.65;;;0.60;;
66721;SDS011;53633;49.932;10.884;2023-03-14T11:24:02;2.92;;;0.65;;
66721;SDS011;53633;49.932;10.884;2023-03-14T11:26:44;3.00;;;0.40;;
66721;SDS011;53633;49.932;10.884;2023-03-14T11:29:20;2.53;;;0.30;;
66721;SDS011;53633;49.932;10.884;2023-03-14T11:31:48;2.58;;;0.40;;
66721;SDS011;53633;49.932;10.884;2023-03-14T11:34:15;2.45;;;0.50;;
66721;SDS011;53633;49.932;10.884;2023-03-14T11:36:48;1.80;;;0.40;;
66721;SDS011;53633;49.932;10.884;2023-03-14T11:39:19;2.60;;;0.50;;
66721;SDS011;53633;49.932;10.884;2023-03-14T11:41:47;1.85;;;0.45;;
66721;SDS011;53633;49.932;10.884;2023-03-14T11:44:17;1.70;;;0.43;;
66721;SDS011;53633;49.932;10.884;2023-03-14T11:46:46;3.97;;;0.82;;
66721;SDS011;53633;49.932;10.884;2023-03-14T11:49:18;1.20;;;0.32;;
66721;SDS011;53633;49.932;10.884;2023-03-14T11:51:58;1.47;;;0.40;;
66721;SDS011;53633;49.932;10.884;2023-03-14T11:54:30;1.70;;;0.40;;
66721;SDS011;53633;49.932;10.884;2023-03-14T11:57:01;2.28;;;0.50;;
66721;SDS011;53633;49.932;10.884;2023-03-14T11:59:31;2.53;;;0.50;;
66721;SDS011;53633;49.932;10.884;2023-03-14T12:02:09;2.28;;;0.43;;
66721;SDS011;53633;49.932;10.884;2023-03-14T12:04:46;2.07;;;0.40;;
66721;SDS011;53633;49.932;10.884;2023-03-14T12:07:23;2.72;;;0.52;;
66721;SDS011;53633;49.932;10.884;2023-03-14T12:09:56;1.90;;;0.40;;
66721;SDS011;53633;49.932;10.884;2023-03-14T12:12:24;1.52;;;0.40;;
66721;SDS011;53633;49.932;10.884;2023-03-14T12:14:54;1.38;;;0.40;;
66721;SDS011;53633;49.932;10.884;2023-03-14T12:17:25;1.37;;;0.40;;
66721;SDS011;53633;49.932;10.884;2023-03-14T12:20:03;2.17;;;0.40;;
66721;SDS011;53633;49.932;10.884;2023-03-14T12:22:42;1.90;;;0.40;;
66721;SDS011;53633;49.932;10.884;2023-03-14T12:25:15;1.50;;;0.45;;
66721;SDS011;53633;49.932;10.884;2023-03-14T12:27:49;2.28;;;0.50;;
66721;SDS011;53633;49.932;10.884;2023-03-14T12:30:30;2.33;;;0.47;;
66721;SDS011;53633;49.932;10.884;2023-03-14T12:33:11;2.17;;;0.40;;
66721;SDS011;53633;49.932;10.884;2023-03-14T12:35:57;2.45;;;0.70;;
66721;SDS011;53633;49.932;10.884;2023-03-14T12:38:32;1.70;;;0.40;;
66721;SDS011;53633;49.932;10.884;2023-03-14T12:41:12;1.33;;;0.40;;
66721;SDS011;53633;49.932;10.884;2023-03-14T12:43:41;2.07;;;0.57;;
66721;SDS011;53633;49.932;10.884;2023-03-14T12:46:09;3.05;;;0.55;;
66721;SDS011;53633;49.932;10.884;2023-03-14T12:48:45;1.73;;;0.60;;
66721;SDS011;53633;49.932;10.884;2023-03-14T12:51:13;2.33;;;0.50;;
66721;SDS011;53633;49.932;10.884;2023-03-14T12:59:45;2.33;;;0.40;;
66721;SDS011;53633;49.932;10.884;2023-03-14T13:02:21;2.25;;;0.50;;
66721;SDS011;53633;49.932;10.884;2023-03-14T13:04:50;2.92;;;0.60;;
66721;SDS011;53633;49.932;10.884;2023-03-14T13:07:31;1.15;;;0.30;;
66721;SDS011;53633;49.932;10.884;2023-03-14T13:10:03;3.10;;;0.57;;
66721;SDS011;53633;49.932;10.884;2023-03-14T13:12:46;3.58;;;0.50;;
66721;SDS011;53633;49.932;10.884;2023-03-14T13:15:20;1.35;;;0.30;;
66721;SDS011;53633;49.932;10.884;2023-03-14T13:17:51;2.78;;;0.30;;
66721;SDS011;53633;49.932;10.884;2023-03-14T13:20:23;1.60;;;0.30;;
66721;SDS011;53633;49.932;10.884;2023-03-14T13:22:54;2.40;;;0.40;;
66721;SDS011;53633;49.932;10.884;2023-03-14T13:25:22;2.95;;;0.40;;
66721;SDS011;53633;49.932;10.884;2023-03-14T13:27:49;3.15;;;0.60;;
66721;SDS011;53633;49.932;10.884;2023-03-14T13:30:23;4.18;;;0.60;;
66721;SDS011;53633;49.932;10.884;2023-03-14T13:32:51;4.85;;;1.00;;
66721;SDS011;53633;49.932;10.884;2023-03-14T13:35:21;8.20;;;2.07;;
66721;SDS011;53633;49.932;10.884;2023-03-14T13:37:54;7.30;;;1.42;;
66721;SDS011;53633;49.932;10.884;2023-03-14T13:40:38;8.23;;;2.38;;
66721;SDS011;53633;49.932;10.884;2023-03-14T13:43:09;4.97;;;1.02;;
66721;SDS011;53633;49.932;10.884;2023-03-14T13:45:48;3.25;;;0.70;;
66721;SDS011;53633;49.932;10.884;2023-03-14T13:48:16;3.60;;;0.63;;
66721;SDS011;53633;49.932;10.884;2023-03-14T13:50:54;2.85;;;0.40;;
66721;SDS011;53633;49.932;10.884;2023-03-14T13:53:22;3.67;;;1.00;;
66721;SDS011;53633;49.932;10.884;2023-03-14T13:55:51;10.35;;;2.80;;
66721;SDS011;53633;49.932;10.884;2023-03-14T13:58:19;13.38;;;2.90;;
66721;SDS011;53633;49.932;10.884;2023-03-14T14:00:55;6.07;;;1.47;;
66721;SDS011;53633;49.932;10.884;2023-03-14T14:03:24;4.38;;;0.50;;
66721;SDS011;53633;49.932;10.884;2023-03-14T14:05:51;2.40;;;0.50;;
66721;SDS011;53633;49.932;10.884;2023-03-14T14:08:20;3.28;;;0.60;;
66721;SDS011;53633;49.932;10.884;2023-03-14T14:10:47;2.10;;;0.43;;
66721;SDS011;53633;49.932;10.884;2023-03-14T14:13:16;1.40;;;0.40;;
66721;SDS011;53633;49.932;10.884;2023-03-14T14:15:46;2.30;;;0.50;;
66721;SDS011;53633;49.932;10.884;2023-03-14T14:18:16;2.22;;;0.40;;
66721;SDS011;53633;49.932;10.884;2023-03-14T14:20:45;2.97;;;0.52;;
66721;SDS011;53633;49.932;10.884;2023-03-14T14:23:14;2.00;;;0.30;;
66721;SDS011;53633;49.932;10.884;2023-03-14T14:25:44;1.03;;;0.20;;
66721;SDS011;53633;49.932;10.884;2023-03-14T14:28:21;3.20;;;0.40;;
66721;SDS011;53633;49.932;10.884;2023-03-14T14:30:59;1.42;;;0.30;;
66721;SDS011;53633;49.932;10.884;2023-03-14T14:33:27;1.23;;;0.30;;
66721;SDS011;53633;49.932;10.884;2023-03-14T14:35:54;0.80;;;0.30;;
66721;SDS011;53633;49.932;10.884;2023-03-14T14:38:23;1.33;;;0.30;;
66721;SDS011;53633;49.932;10.884;2023-03-14T14:40:51;1.45;;;0.28;;
66721;SDS011;53633;49.932;10.884;2023-03-14T14:43:33;0.80;;;0.20;;
66721;SDS011;53633;49.932;10.884;2023-03-14T14:46:05;2.72;;;0.40;;
66721;SDS011;53633;49.932;10.884;2023-03-14T14:48:35;1.05;;;0.30;;
66721;SDS011;53633;49.932;10.884;2023-03-14T14:51:04;1.13;;;0.30;;
66721;SDS011;53633;49.932;10.884;2023-03-14T14:53:36;1.27;;;0.30;;
66721;SDS011;53633;49.932;10.884;2023-03-14T14:56:06;1.38;;;0.30;;